createdAt,value
2022-11-19T00:01:34.251Z,58.43
2022-11-19T00:04:01.837Z,87.10
2022-11-19T00:06:29.543Z,94.17
2022-11-19T00:08:57.919Z,111.97
2022-11-19T00:11:46.257Z,106.00
2022-11-19T00:14:16.448Z,119.67
2022-11-19T00:16:45.563Z,106.57
2022-11-19T00:19:14.725Z,78.73
2022-11-19T00:21:42.507Z,84.70
2022-11-19T00:24:10.868Z,87.97
2022-11-19T00:26:38.749Z,106.17
2022-11-19T00:29:06.431Z,105.33
2022-11-19T00:31:33.892Z,84.53
2022-11-19T00:34:01.859Z,86.10
2022-11-19T00:36:29.530Z,78.37
2022-11-19T00:38:57.129Z,79.67
2022-11-19T00:41:24.836Z,67.33
2022-11-19T00:43:52.846Z,74.33
2022-11-19T00:46:26.043Z,56.77
2022-11-19T00:48:55.605Z,65.43
2022-11-19T00:51:25.432Z,64.83
2022-11-19T00:53:53.833Z,63.27
2022-11-19T00:56:24.204Z,76.43
2022-11-19T00:58:52.704Z,69.10
2022-11-19T01:01:22.086Z,63.40
2022-11-19T01:03:50.588Z,65.43
2022-11-19T01:06:21.156Z,63.73
2022-11-19T01:08:49.494Z,64.37
2022-11-19T01:11:20.160Z,62.90
2022-11-19T01:13:48.521Z,62.03
2022-11-19T01:16:18.616Z,58.03
2022-11-19T01:18:48.094Z,61.10
2022-11-19T01:21:16.166Z,59.33
2022-11-19T01:23:44.933Z,60.73
2022-11-19T01:26:13.074Z,52.07
2022-11-19T01:28:41.276Z,57.07
2022-11-19T01:31:10.534Z,52.97
2022-11-19T01:33:38.930Z,52.87
2022-11-19T01:36:10.791Z,52.43
2022-11-19T01:38:38.878Z,53.03
2022-11-19T01:41:07.023Z,63.83
2022-11-19T01:43:48.413Z,68.33
2022-11-19T01:46:18.639Z,59.20
2022-11-19T01:48:53.312Z,52.67
2022-11-19T01:51:21.104Z,52.23
2022-11-19T01:53:52.036Z,55.20
2022-11-19T01:56:21.841Z,49.17
2022-11-19T01:59:00.324Z,53.47
2022-11-19T02:01:29.599Z,50.10
2022-11-19T02:04:01.053Z,51.30
2022-11-19T02:06:29.557Z,51.30
2022-11-19T02:08:57.698Z,52.33
2022-11-19T02:11:25.356Z,52.60
2022-11-19T02:13:59.614Z,49.80
2022-11-19T02:16:51.599Z,53.13
2022-11-19T02:19:31.414Z,45.63
2022-11-19T02:21:59.102Z,54.73
2022-11-19T02:24:52.004Z,50.77
2022-11-19T02:27:44.378Z,51.90
2022-11-19T02:30:17.467Z,52.20
2022-11-19T02:32:45.327Z,47.50
2022-11-19T02:35:16.409Z,53.00
2022-11-19T02:37:53.827Z,50.83
2022-11-19T02:40:27.162Z,50.73
2022-11-19T02:42:54.799Z,49.03
2022-11-19T02:45:33.603Z,46.43
2022-11-19T02:48:11.930Z,46.80
2022-11-19T02:50:45.306Z,51.37
2022-11-19T02:53:13.167Z,55.63
2022-11-19T02:55:41.492Z,54.47
2022-11-19T02:58:11.917Z,48.90
2022-11-19T03:01:05.066Z,50.50
2022-11-19T03:03:51.959Z,48.70
2022-11-19T03:06:27.440Z,44.30
2022-11-19T03:08:55.283Z,46.80
2022-11-19T03:11:26.278Z,43.53
2022-11-19T03:14:48.389Z,43.83
2022-11-19T03:17:46.492Z,47.07
2022-11-19T03:20:36.955Z,47.97
2022-11-19T03:23:12.493Z,44.77
2022-11-19T03:25:45.613Z,45.47
2022-11-19T03:28:16.635Z,45.37
2022-11-19T03:30:47.391Z,44.77
2022-11-19T03:33:28.724Z,44.70
2022-11-19T03:36:06.495Z,46.80
2022-11-19T03:38:39.686Z,47.07
2022-11-19T03:41:08.143Z,44.57
2022-11-19T03:43:39.945Z,45.27
2022-11-19T03:46:13.412Z,42.93
2022-11-19T03:48:44.540Z,39.20
2022-11-19T03:51:16.454Z,42.90
2022-11-19T03:53:44.577Z,43.57
2022-11-19T03:56:14.280Z,46.73
2022-11-19T03:58:43.763Z,45.00
2022-11-19T04:01:11.801Z,41.73
2022-11-19T04:03:39.848Z,39.37
2022-11-19T04:06:08.353Z,43.17
2022-11-19T04:08:36.481Z,41.00
2022-11-19T04:13:31.043Z,40.03
2022-11-19T04:15:58.814Z,39.87
2022-11-19T04:18:26.789Z,41.67
2022-11-19T04:20:54.605Z,43.27
2022-11-19T04:23:22.730Z,43.00
2022-11-19T04:25:50.383Z,45.10
2022-11-19T04:28:18.416Z,54.37
2022-11-19T04:30:46.264Z,54.00
2022-11-19T04:33:14.229Z,100.90
2022-11-19T04:35:45.478Z,92.53
2022-11-19T04:38:13.500Z,110.03
2022-11-19T04:40:42.791Z,81.97
2022-11-19T04:43:10.733Z,54.23
2022-11-19T04:45:38.588Z,42.70
2022-11-19T04:48:06.733Z,40.83
2022-11-19T04:50:34.622Z,35.70
2022-11-19T04:53:02.675Z,36.20
2022-11-19T04:55:30.284Z,37.23
2022-11-19T04:57:58.393Z,35.73
2022-11-19T05:00:26.275Z,36.93
2022-11-19T05:02:54.321Z,38.23
2022-11-19T05:05:22.140Z,43.20
2022-11-19T05:07:50.358Z,38.77
2022-11-19T05:10:18.235Z,35.20
2022-11-19T05:12:45.903Z,39.63
2022-11-19T05:15:13.460Z,41.27
2022-11-19T05:17:41.116Z,38.47
2022-11-19T05:20:09.460Z,38.37
2022-11-19T05:22:37.603Z,42.03
2022-11-19T05:25:05.203Z,38.23
2022-11-19T05:27:32.877Z,40.73
2022-11-19T05:30:00.148Z,43.33
2022-11-19T05:32:27.769Z,44.43
2022-11-19T05:34:55.114Z,45.03
2022-11-19T05:37:23.210Z,40.03
2022-11-19T05:39:50.892Z,42.87
2022-11-19T05:42:19.090Z,38.50
2022-11-19T05:44:46.786Z,40.77
2022-11-19T05:47:16.456Z,45.83
2022-11-19T05:49:44.190Z,41.40
2022-11-19T05:52:12.501Z,41.37
2022-11-19T05:54:40.325Z,41.90
2022-11-19T05:57:08.478Z,40.50
2022-11-19T05:59:42.270Z,38.57
2022-11-19T06:02:11.885Z,37.93
2022-11-19T06:04:39.809Z,38.87
2022-11-19T06:07:08.038Z,41.17
2022-11-19T06:09:35.780Z,42.47
2022-11-19T06:12:03.948Z,37.90
2022-11-19T06:14:31.841Z,40.87
2022-11-19T06:17:01.010Z,40.40
2022-11-19T06:19:28.821Z,41.83
2022-11-19T06:21:56.814Z,37.17
2022-11-19T06:24:24.786Z,39.33
2022-11-19T06:26:53.035Z,36.30
2022-11-19T06:29:21.765Z,37.13
2022-11-19T06:31:50.213Z,40.20
2022-11-19T06:34:18.279Z,38.63
2022-11-19T06:36:50.240Z,42.30
2022-11-19T06:39:19.319Z,42.17
2022-11-19T06:41:49.048Z,47.63
2022-11-19T06:44:17.006Z,42.17
2022-11-19T06:46:44.997Z,44.17
2022-11-19T06:49:18.408Z,39.90
2022-11-19T06:51:48.549Z,41.40
2022-11-19T06:54:15.956Z,42.20
2022-11-19T06:56:43.601Z,41.87
2022-11-19T06:59:11.124Z,39.23
2022-11-19T07:01:38.923Z,42.10
2022-11-19T07:04:06.426Z,42.87
2022-11-19T07:06:34.598Z,48.07
2022-11-19T07:09:02.417Z,67.70
2022-11-19T07:11:31.338Z,73.43
2022-11-19T07:14:00.092Z,65.90
2022-11-19T07:16:36.111Z,44.00
2022-11-19T07:19:05.268Z,50.03
2022-11-19T07:21:33.807Z,47.80
2022-11-19T07:24:02.336Z,47.63
2022-11-19T07:26:32.772Z,46.23
2022-11-19T07:29:04.680Z,40.83
2022-11-19T07:31:34.000Z,40.70
2022-11-19T07:34:02.193Z,41.00
2022-11-19T07:36:30.262Z,42.07
2022-11-19T07:38:58.883Z,46.67
2022-11-19T07:41:46.327Z,44.13
2022-11-19T07:44:14.736Z,40.17
2022-11-19T07:46:43.501Z,46.50
2022-11-19T07:49:12.713Z,46.87
2022-11-19T07:51:41.815Z,47.53
2022-11-19T07:54:11.578Z,55.83
2022-11-19T07:56:40.801Z,60.70
2022-11-19T07:59:11.083Z,45.77
2022-11-19T08:01:40.199Z,45.00
2022-11-19T08:04:08.255Z,45.33
2022-11-19T08:06:36.797Z,42.77
2022-11-19T08:09:06.069Z,45.73
2022-11-19T08:11:34.239Z,47.50
2022-11-19T08:14:03.450Z,45.90
2022-11-19T08:16:52.844Z,44.00
2022-11-19T08:19:20.829Z,42.37
2022-11-19T08:21:49.506Z,52.37
2022-11-19T08:24:18.920Z,54.50
2022-11-19T08:26:49.169Z,45.47
2022-11-19T08:29:18.176Z,45.67
2022-11-19T08:31:48.278Z,41.70
2022-11-19T08:34:16.799Z,49.60
2022-11-19T08:36:45.576Z,50.97
2022-11-19T08:39:13.676Z,42.60
2022-11-19T08:42:00.607Z,43.67
2022-11-19T08:44:28.287Z,48.57
2022-11-19T08:46:56.428Z,42.80
2022-11-19T08:49:23.963Z,45.33
2022-11-19T08:51:52.295Z,45.33
2022-11-19T08:54:19.900Z,46.13
2022-11-19T08:56:48.096Z,49.77
2022-11-19T08:59:15.687Z,45.10
2022-11-19T09:01:43.622Z,41.57
2022-11-19T09:04:11.528Z,44.00
2022-11-19T09:06:39.379Z,44.93
2022-11-19T09:09:06.872Z,43.17
2022-11-19T09:11:39.870Z,42.23
2022-11-19T09:14:10.222Z,37.07
2022-11-19T09:16:38.255Z,45.60
2022-11-19T09:19:05.759Z,42.70
2022-11-19T09:21:33.552Z,41.90
2022-11-19T09:24:01.360Z,45.40
2022-11-19T09:26:29.124Z,36.77
2022-11-19T09:28:57.133Z,44.50
2022-11-19T09:31:25.401Z,44.30
2022-11-19T09:33:54.580Z,39.50
2022-11-19T09:36:22.728Z,44.50
2022-11-19T09:38:50.303Z,60.43
2022-11-19T09:41:18.269Z,41.00
2022-11-19T09:44:10.253Z,48.33
2022-11-19T09:46:59.247Z,46.23
2022-11-19T09:50:11.315Z,42.07
2022-11-19T09:52:46.109Z,38.00
2022-11-19T09:55:38.302Z,37.90
2022-11-19T09:58:23.306Z,31.40
2022-11-19T10:00:51.272Z,33.93
2022-11-19T10:03:22.616Z,34.80
2022-11-19T10:06:24.634Z,28.77
2022-11-19T20:08:08.586Z,49.27
2022-11-19T20:10:39.277Z,49.27
2022-11-19T20:13:28.190Z,44.97
2022-11-19T20:16:03.362Z,50.70
2022-11-19T20:18:32.425Z,47.83
2022-11-19T20:21:01.509Z,50.87
2022-11-19T20:23:30.028Z,47.83
2022-11-19T20:26:03.549Z,47.53
2022-11-19T20:28:32.164Z,48.20
2022-11-19T20:31:09.325Z,50.73
2022-11-19T20:33:39.239Z,48.03
2022-11-19T20:36:08.623Z,49.50
2022-11-19T20:38:37.706Z,45.30
2022-11-19T20:41:07.985Z,51.90
2022-11-19T20:43:55.096Z,53.33
2022-11-19T20:46:23.313Z,52.23
2022-11-19T20:48:51.499Z,53.37
2022-11-19T20:51:20.881Z,48.87
2022-11-19T20:53:48.850Z,50.63
2022-11-19T20:56:17.345Z,46.40
2022-11-19T20:58:45.707Z,48.63
2022-11-19T21:01:14.179Z,49.83
2022-11-19T21:03:41.756Z,49.07
2022-11-19T21:06:09.586Z,51.20
2022-11-19T21:08:37.622Z,49.63
2022-11-19T21:11:11.701Z,54.00
2022-11-19T21:13:39.779Z,53.20
2022-11-19T21:16:16.959Z,55.27
2022-11-19T21:18:45.190Z,52.10
2022-11-19T21:21:15.988Z,53.07
2022-11-19T21:23:44.203Z,50.63
2022-11-19T21:26:23.810Z,49.13
2022-11-19T21:28:54.749Z,54.27
2022-11-19T21:31:48.326Z,51.23
2022-11-19T21:34:19.247Z,60.30
2022-11-19T21:36:49.698Z,54.83
2022-11-19T21:39:20.481Z,54.67
2022-11-19T21:41:49.040Z,55.73
2022-11-19T21:44:21.473Z,56.43
2022-11-19T21:46:50.690Z,58.10
2022-11-19T21:49:20.622Z,59.77
2022-11-19T21:51:49.403Z,55.97
2022-11-19T21:54:17.123Z,53.23
2022-11-19T21:56:45.034Z,55.43
2022-11-19T21:59:12.615Z,57.70
2022-11-19T22:01:40.382Z,56.07
2022-11-19T22:04:07.965Z,57.40
2022-11-19T22:06:35.764Z,54.80
2022-11-19T22:09:03.517Z,62.47
2022-11-19T22:11:31.997Z,55.93
2022-11-19T22:14:06.440Z,59.73
2022-11-19T22:16:38.383Z,61.20
2022-11-19T22:19:06.814Z,57.57
2022-11-19T22:21:35.805Z,63.40
2022-11-19T22:24:03.714Z,61.33
2022-11-19T22:26:32.731Z,63.43
2022-11-19T22:29:00.524Z,59.73
2022-11-19T22:31:28.438Z,59.43
2022-11-19T22:33:55.951Z,58.00
2022-11-19T22:36:24.100Z,65.03
2022-11-19T22:38:52.297Z,53.73
2022-11-19T22:41:22.280Z,61.70
2022-11-19T22:43:50.431Z,58.37
2022-11-19T22:46:19.709Z,59.67
2022-11-19T22:48:47.532Z,59.03
2022-11-19T22:51:18.903Z,61.47
2022-11-19T22:53:47.863Z,62.80
2022-11-19T22:56:19.876Z,60.77
2022-11-19T22:58:48.461Z,60.07
2022-11-19T23:01:30.991Z,66.50
2022-11-19T23:04:01.936Z,68.30
2022-11-19T23:06:29.763Z,66.47
2022-11-19T23:08:57.319Z,64.33
2022-11-19T23:11:43.645Z,67.10
2022-11-19T23:14:14.077Z,66.57
2022-11-19T23:16:42.836Z,66.03
2022-11-19T23:19:12.574Z,59.23
2022-11-19T23:21:40.607Z,62.43
2022-11-19T23:24:10.066Z,69.13
2022-11-19T23:26:38.461Z,63.83
2022-11-19T23:29:07.314Z,69.80
2022-11-19T23:31:38.538Z,68.37
2022-11-19T23:34:06.221Z,70.50
2022-11-19T23:36:38.190Z,72.93
2022-11-19T23:39:09.868Z,71.47
2022-11-19T23:41:37.759Z,69.07
2022-11-19T23:44:05.436Z,65.03
2022-11-19T23:46:35.312Z,67.67
2022-11-19T23:49:04.214Z,62.67
2022-11-19T23:51:35.085Z,65.53
2022-11-19T23:54:03.102Z,63.20
2022-11-19T23:56:33.447Z,62.97
2022-11-19T23:59:02.461Z,64.43
